createdAt,value
2018-12-24T03:39:26.380Z,26.80
2018-12-24T03:41:59.033Z,27.00
2018-12-24T03:44:29.614Z,26.80
2018-12-24T03:44:31.808Z,27.20
2018-12-24T03:45:32.403Z,26.80
2018-12-24T03:47:04.798Z,27.20
2018-12-24T03:49:38.018Z,27.40
2018-12-24T03:52:10.768Z,27.30
2018-12-24T03:54:43.868Z,27.40
2018-12-24T03:57:16.440Z,27.50
2018-12-24T05:19:02.664Z,22.80
2018-12-24T05:21:35.512Z,24.10
2018-12-24T05:24:08.774Z,24.90
2018-12-24T05:30:06.898Z,24.90
2018-12-24T05:32:40.028Z,24.30
2018-12-24T05:35:12.919Z,23.80
2018-12-24T05:37:46.510Z,23.40
2018-12-24T05:40:19.390Z,23.10
2018-12-24T05:42:52.076Z,22.80
2018-12-24T05:45:25.100Z,22.50
2018-12-24T05:47:57.659Z,22.30
2018-12-24T05:50:31.047Z,22.10
2018-12-24T05:53:03.941Z,22.00
2018-12-24T05:55:36.737Z,21.80
2018-12-24T05:58:10.110Z,21.70
2018-12-24T06:00:43.002Z,21.50
2018-12-24T06:03:15.955Z,21.40
2018-12-24T06:05:48.756Z,21.30
2018-12-24T06:08:23.240Z,21.20
2018-12-24T06:10:56.422Z,21.20
2018-12-24T06:13:29.171Z,21.20
2018-12-24T06:16:02.024Z,21.10
2018-12-24T06:18:35.152Z,21.10
2018-12-24T06:21:08.221Z,21.00
2018-12-24T06:23:40.805Z,21.00
2018-12-24T06:26:13.581Z,20.90
2018-12-24T06:28:47.265Z,20.90
2018-12-24T06:31:20.300Z,20.90
2018-12-24T06:33:53.285Z,20.80
2018-12-24T06:36:27.048Z,20.70
2018-12-24T06:38:59.724Z,20.70
2018-12-24T06:41:32.809Z,20.60
2018-12-24T06:44:06.887Z,20.60
2018-12-24T06:46:40.089Z,20.50
2018-12-24T06:49:13.187Z,20.40
2018-12-24T06:51:46.014Z,20.30
2018-12-24T06:54:19.420Z,20.20
2018-12-24T06:56:52.110Z,20.20
2018-12-24T06:59:25.266Z,20.10
2018-12-24T07:01:58.165Z,20.10
2018-12-24T07:04:31.043Z,20.00
2018-12-24T07:07:04.040Z,20.00
2018-12-24T07:09:37.216Z,20.00
2018-12-24T07:12:10.375Z,20.00
2018-12-24T07:14:44.653Z,20.00
2018-12-24T07:17:17.578Z,19.90
2018-12-24T07:19:50.671Z,19.90
2018-12-24T07:22:23.382Z,19.90
2018-12-24T07:24:56.566Z,19.80
2018-12-24T07:27:30.894Z,19.80
2018-12-24T07:30:05.180Z,19.80
2018-12-24T07:32:39.810Z,19.80
2018-12-24T07:35:12.850Z,19.70
2018-12-24T07:37:45.807Z,19.70
2018-12-24T07:40:19.000Z,19.70
2018-12-24T07:42:51.893Z,19.70
2018-12-24T07:45:25.033Z,19.70
2018-12-24T07:47:58.391Z,19.70
2018-12-24T07:50:31.411Z,19.60
2018-12-24T07:53:04.031Z,19.60
2018-12-24T07:55:37.042Z,19.60
2018-12-24T07:58:10.118Z,19.60
2018-12-24T08:00:42.693Z,19.60
2018-12-24T08:03:15.694Z,19.60
2018-12-24T08:05:48.537Z,19.60
2018-12-24T08:08:21.818Z,19.60
2018-12-24T08:10:54.616Z,19.60
2018-12-24T08:13:27.514Z,19.60
2018-12-24T08:16:00.846Z,19.60
2018-12-24T08:18:34.487Z,19.60
2018-12-24T08:21:07.630Z,19.60
2018-12-24T08:23:41.014Z,19.60
2018-12-24T08:26:13.742Z,19.60
2018-12-24T08:28:46.668Z,19.60
2018-12-24T08:31:21.392Z,19.60
2018-12-24T08:33:54.337Z,19.60
2018-12-24T08:36:27.461Z,19.60
2018-12-24T08:39:00.457Z,19.60
2018-12-24T08:41:33.471Z,19.50
2018-12-24T08:44:07.216Z,19.50
2018-12-24T08:46:40.201Z,19.50
2018-12-24T08:49:13.100Z,19.40
2018-12-24T08:51:46.327Z,19.40
2018-12-24T08:54:19.837Z,19.40
2018-12-24T08:56:52.584Z,19.40
2018-12-24T08:59:25.477Z,19.30
2018-12-24T09:01:58.782Z,19.30
2018-12-24T09:04:32.941Z,19.30
2018-12-24T09:07:06.206Z,19.30
2018-12-24T09:09:39.477Z,19.30
2018-12-24T09:12:12.360Z,19.40
2018-12-24T09:14:50.168Z,19.40
2018-12-24T09:17:19.979Z,19.30
2018-12-24T09:19:52.652Z,19.30
2018-12-24T09:22:26.211Z,19.20
2018-12-24T09:24:58.952Z,19.20
2018-12-24T09:27:32.147Z,19.20
2018-12-24T09:30:05.103Z,19.20
2018-12-24T09:32:38.776Z,19.20
2018-12-24T09:35:12.743Z,19.20
2018-12-24T09:37:45.583Z,19.20
2018-12-24T09:40:18.476Z,19.20
2018-12-24T09:42:51.830Z,19.20
2018-12-24T09:45:25.049Z,19.20
2018-12-24T09:47:58.734Z,19.20
2018-12-24T09:50:31.923Z,19.20
2018-12-24T09:53:04.961Z,19.20
2018-12-24T09:55:37.757Z,19.10
2018-12-24T09:58:11.210Z,19.00
2018-12-24T10:00:43.783Z,19.00
2018-12-24T10:03:19.895Z,19.00
2018-12-24T10:05:52.322Z,19.00
2018-12-24T10:08:25.525Z,19.00
2018-12-24T10:10:58.668Z,19.10
2018-12-24T10:13:31.404Z,19.10
2018-12-24T10:16:08.000Z,19.10
2018-12-24T10:18:41.039Z,19.10
2018-12-24T10:21:14.466Z,19.10
2018-12-24T10:23:48.750Z,19.10
2018-12-24T10:26:21.866Z,19.10
2018-12-24T10:28:55.578Z,19.00
2018-12-24T10:31:28.404Z,19.00
2018-12-24T10:34:01.794Z,19.00
2018-12-24T10:36:35.273Z,19.00
2018-12-24T10:39:09.680Z,19.00
2018-12-24T10:41:43.222Z,18.90
2018-12-24T10:44:16.337Z,19.00
2018-12-24T10:46:49.473Z,18.90
2018-12-24T10:49:22.737Z,18.90
2018-12-24T10:51:55.262Z,18.90
2018-12-24T10:54:28.166Z,18.90
2018-12-24T10:57:00.871Z,18.90
2018-12-24T10:59:35.063Z,18.90
2018-12-24T11:02:09.055Z,18.90
2018-12-24T11:04:41.771Z,18.90
2018-12-24T11:07:14.564Z,19.00
2018-12-24T11:09:47.602Z,19.00
2018-12-24T11:12:20.162Z,19.00
2018-12-24T11:14:52.785Z,19.00
2018-12-24T11:17:25.589Z,19.10
2018-12-24T11:19:59.266Z,19.10
2018-12-24T11:22:32.329Z,19.10
2018-12-24T11:25:04.968Z,19.10
2018-12-24T11:27:38.520Z,19.10
2018-12-24T11:30:11.964Z,19.10
2018-12-24T11:32:44.731Z,19.10
2018-12-24T11:35:18.331Z,19.10
2018-12-24T11:37:51.415Z,19.10
2018-12-24T11:40:24.326Z,19.20
2018-12-24T11:42:58.441Z,19.20
2018-12-24T11:45:34.118Z,19.20
2018-12-24T11:48:06.600Z,19.20
2018-12-24T11:50:39.136Z,19.20
2018-12-24T11:53:11.888Z,19.20
2018-12-24T11:55:45.140Z,19.30
2018-12-24T11:58:17.826Z,19.30
2018-12-24T12:00:50.659Z,19.30
2018-12-24T12:03:23.685Z,19.30
2018-12-24T12:05:56.587Z,19.30
2018-12-24T12:08:28.998Z,19.30
2018-12-24T12:11:02.191Z,19.30
2018-12-24T12:13:34.952Z,19.30
2018-12-24T12:16:07.901Z,19.30
2018-12-24T12:18:40.767Z,19.30
2018-12-24T12:21:13.517Z,19.30
2018-12-24T12:23:46.192Z,19.20
2018-12-24T12:26:18.869Z,19.20
2018-12-24T12:28:51.736Z,19.30
2018-12-24T12:31:24.333Z,19.20
2018-12-24T12:33:58.314Z,19.20
2018-12-24T12:36:31.245Z,19.20
2018-12-24T12:39:04.908Z,19.20
2018-12-24T12:41:37.841Z,19.20
2018-12-24T12:44:10.710Z,19.20
2018-12-24T12:46:43.550Z,19.20
2018-12-24T12:49:16.428Z,19.20
2018-12-24T12:51:49.623Z,19.20
2018-12-24T12:54:22.245Z,19.20
2018-12-24T12:56:54.950Z,19.20
2018-12-24T12:59:27.729Z,19.20
2018-12-24T13:02:00.483Z,19.20
2018-12-24T13:04:33.258Z,19.20
2018-12-24T13:07:05.960Z,19.20
2018-12-24T13:09:39.311Z,19.20
2018-12-24T13:12:12.166Z,19.20
2018-12-24T13:14:45.232Z,19.10
2018-12-24T13:17:18.113Z,19.10
2018-12-24T13:19:51.376Z,18.90
2018-12-24T13:22:23.976Z,18.90
2018-12-24T13:24:56.894Z,18.80
2018-12-24T13:27:29.799Z,18.80
2018-12-24T13:30:02.642Z,18.80
2018-12-24T13:32:35.730Z,18.80
2018-12-24T13:35:08.418Z,18.80
2018-12-24T13:37:42.784Z,18.80
2018-12-24T13:40:15.285Z,18.80
2018-12-24T13:42:48.417Z,18.80
2018-12-24T13:45:21.354Z,18.80
2018-12-24T13:47:54.345Z,18.90
2018-12-24T13:50:26.994Z,18.90
2018-12-24T13:52:59.804Z,18.90
2018-12-24T13:55:32.705Z,18.90
2018-12-24T13:58:05.588Z,18.80
2018-12-24T14:00:38.252Z,18.70
2018-12-24T14:03:11.056Z,18.70
2018-12-24T14:05:43.824Z,18.60
2018-12-24T14:08:16.548Z,18.50
2018-12-24T14:10:50.065Z,18.40
2018-12-24T14:13:22.689Z,18.40
2018-12-24T14:15:55.600Z,18.30
2018-12-24T14:18:29.049Z,18.30
2018-12-24T14:21:01.720Z,18.30
2018-12-24T14:23:34.445Z,18.20
2018-12-24T14:26:07.214Z,18.20
2018-12-24T14:28:39.979Z,18.20
2018-12-24T14:31:12.630Z,18.20
2018-12-24T14:33:45.655Z,18.20
2018-12-24T14:36:19.231Z,18.10
2018-12-24T14:38:52.674Z,18.10
2018-12-24T14:41:25.592Z,18.10
2018-12-24T14:43:58.168Z,18.10
2018-12-24T14:46:30.892Z,18.10
2018-12-24T14:49:03.563Z,18.00
2018-12-24T14:51:36.341Z,18.00
2018-12-24T14:54:09.501Z,18.00
2018-12-24T14:56:42.437Z,18.00
2018-12-24T14:59:15.320Z,18.00
2018-12-24T15:01:49.348Z,18.00
2018-12-24T15:04:22.331Z,17.90
2018-12-24T15:06:55.515Z,17.90
2018-12-24T15:09:28.482Z,17.90
2018-12-24T15:12:02.008Z,17.80
2018-12-24T15:14:34.912Z,17.80
2018-12-24T15:17:07.987Z,17.80
2018-12-24T15:19:40.899Z,17.90
2018-12-24T15:22:14.766Z,17.80
2018-12-24T15:24:47.653Z,17.80
2018-12-24T15:27:20.504Z,17.80
2018-12-24T15:29:53.531Z,17.80
2018-12-24T15:32:26.283Z,17.90
2018-12-24T15:34:59.484Z,17.80
2018-12-24T15:37:33.296Z,17.80
2018-12-24T15:40:06.408Z,17.80
2018-12-24T15:42:39.708Z,17.80
2018-12-24T15:45:12.124Z,17.80
2018-12-24T15:47:44.812Z,17.70
2018-12-24T15:50:17.853Z,17.70
2018-12-24T15:52:50.386Z,17.70
2018-12-24T15:55:22.750Z,17.70
2018-12-24T15:57:55.868Z,17.70
2018-12-24T16:00:28.740Z,17.70
2018-12-24T16:03:01.163Z,17.70
2018-12-24T16:05:34.707Z,17.70
2018-12-24T16:08:07.283Z,17.70
2018-12-24T16:10:39.846Z,17.70
2018-12-24T16:13:13.560Z,17.70
2018-12-24T16:15:46.251Z,17.70
2018-12-24T16:18:20.287Z,17.60
2018-12-24T16:20:52.919Z,17.60
2018-12-24T16:23:25.646Z,17.60
2018-12-24T16:25:59.737Z,17.60
2018-12-24T16:28:32.264Z,17.60
2018-12-24T16:31:05.686Z,17.50
2018-12-24T16:33:38.723Z,17.50
2018-12-24T16:36:11.791Z,17.50
2018-12-24T16:38:45.331Z,17.40
2018-12-24T16:41:19.630Z,17.40
2018-12-24T16:43:52.486Z,17.40
2018-12-24T16:46:25.396Z,17.40
2018-12-24T16:48:58.275Z,17.50
2018-12-24T16:51:34.287Z,17.50
2018-12-24T16:54:06.983Z,17.50
2018-12-24T16:56:39.959Z,17.50
2018-12-24T16:59:12.752Z,17.40
2018-12-24T17:01:45.708Z,17.40
2018-12-24T17:04:18.301Z,17.40
2018-12-24T17:06:52.273Z,17.40
2018-12-24T17:09:25.265Z,17.50
2018-12-24T17:11:58.288Z,17.50
2018-12-24T17:14:31.018Z,17.60
2018-12-24T17:17:07.856Z,17.50
2018-12-24T17:19:38.542Z,17.50
2018-12-24T17:22:11.321Z,17.40
2018-12-24T17:24:44.313Z,17.40
2018-12-24T17:27:17.497Z,17.50
2018-12-24T17:29:50.108Z,17.50
2018-12-24T17:32:23.139Z,17.50
2018-12-24T17:34:55.775Z,17.50
2018-12-24T17:37:28.644Z,17.60
2018-12-24T17:40:01.344Z,17.60
2018-12-24T17:42:35.077Z,17.60
2018-12-24T17:45:07.809Z,17.50
2018-12-24T17:47:40.929Z,17.50
2018-12-24T17:50:14.028Z,17.50
2018-12-24T17:52:46.684Z,17.80
2018-12-24T17:55:19.696Z,17.90
2018-12-24T17:57:52.473Z,18.20
2018-12-24T18:00:25.253Z,18.50
2018-12-24T18:02:57.905Z,18.80
2018-12-24T18:05:30.613Z,18.80
2018-12-24T18:08:03.715Z,18.70
2018-12-24T18:10:36.389Z,19.10
2018-12-24T18:13:08.810Z,19.60
2018-12-24T18:15:41.775Z,19.80
2018-12-24T18:18:14.723Z,20.20
2018-12-24T18:20:47.388Z,20.10
2018-12-24T18:23:19.958Z,20.00
2018-12-24T18:25:53.482Z,19.90
2018-12-24T18:28:26.047Z,20.00
2018-12-24T18:30:58.739Z,20.00
2018-12-24T18:33:31.318Z,20.00
2018-12-24T18:36:04.190Z,21.00
2018-12-24T18:38:37.315Z,20.60
2018-12-24T18:41:10.766Z,20.40
2018-12-24T18:43:44.579Z,20.60
2018-12-24T18:46:17.509Z,21.40
2018-12-24T18:48:50.257Z,20.70
2018-12-24T18:51:23.352Z,21.20
2018-12-24T18:53:56.003Z,20.90
2018-12-24T18:56:28.984Z,22.00
2018-12-24T18:59:01.590Z,21.90
2018-12-24T19:01:34.877Z,21.90
2018-12-24T19:04:07.737Z,22.80
2018-12-24T19:06:40.742Z,23.10
2018-12-24T19:09:13.597Z,22.50
2018-12-24T19:11:47.451Z,22.10
2018-12-24T19:14:20.145Z,21.80
2018-12-24T19:16:53.330Z,21.60
2018-12-24T19:19:25.978Z,21.40
2018-12-24T19:21:58.672Z,21.30
2018-12-24T19:24:31.554Z,21.10
2018-12-24T19:27:04.795Z,21.30
2018-12-24T19:29:38.180Z,24.00
2018-12-24T19:32:12.216Z,26.30
2018-12-24T19:34:45.032Z,28.10
2018-12-24T19:37:17.715Z,29.60
2018-12-24T19:39:50.679Z,30.20
2018-12-24T19:42:24.546Z,30.60
2018-12-24T19:44:57.987Z,31.40
2018-12-24T19:47:30.568Z,32.10
2018-12-24T19:50:03.491Z,32.30
2018-12-24T19:52:36.159Z,31.70
2018-12-24T19:55:10.115Z,32.30
2018-12-24T19:57:43.064Z,32.80
2018-12-24T20:00:16.037Z,33.50
2018-12-24T20:02:48.580Z,34.00
2018-12-24T20:05:21.281Z,34.60
2018-12-24T20:07:54.181Z,32.10
2018-12-24T20:10:27.371Z,29.30
2018-12-24T20:13:00.248Z,27.60
2018-12-24T20:15:33.145Z,26.60
2018-12-24T20:18:05.721Z,26.00
2018-12-24T20:20:39.288Z,26.90
2018-12-24T20:23:11.924Z,26.90
2018-12-24T20:25:44.833Z,25.90
2018-12-24T20:28:17.437Z,26.00
2018-12-24T20:30:50.627Z,29.70
2018-12-24T20:33:24.100Z,29.50
2018-12-24T20:35:57.690Z,31.10
2018-12-24T20:38:37.009Z,33.20
2018-12-24T20:41:08.060Z,34.30
2018-12-24T20:43:41.037Z,36.40
2018-12-24T20:46:14.979Z,37.90
2018-12-24T20:48:48.018Z,37.50
2018-12-24T20:51:21.141Z,39.50
2018-12-24T20:53:53.766Z,40.10
2018-12-24T20:56:29.807Z,36.60
2018-12-24T20:59:02.389Z,36.50
2018-12-24T21:01:36.643Z,34.00
2018-12-24T21:04:09.262Z,32.00
2018-12-24T21:06:41.755Z,34.20
2018-12-24T21:09:14.425Z,34.20
2018-12-24T21:11:47.109Z,32.70
2018-12-24T21:14:21.254Z,32.80
2018-12-24T21:16:54.005Z,31.80
2018-12-24T21:19:26.915Z,30.90
2018-12-24T21:21:59.764Z,31.50
2018-12-24T21:24:33.374Z,32.00
2018-12-24T21:27:06.325Z,31.30
2018-12-24T21:29:40.657Z,29.60
2018-12-24T21:32:13.030Z,28.30
2018-12-24T21:34:47.154Z,27.30
2018-12-24T21:37:19.801Z,26.60
2018-12-24T21:39:52.649Z,25.90
2018-12-24T21:42:25.739Z,25.30
2018-12-24T21:45:01.795Z,25.30
2018-12-24T21:47:34.879Z,25.40
2018-12-24T21:50:08.174Z,25.50
2018-12-24T21:52:41.412Z,25.70
2018-12-24T21:55:14.033Z,26.40
2018-12-24T21:57:46.633Z,27.40
2018-12-24T22:00:19.820Z,30.20
2018-12-24T22:02:52.371Z,31.60
2018-12-24T22:05:25.189Z,33.10
2018-12-24T22:07:57.737Z,38.00
2018-12-24T22:10:30.513Z,37.90
2018-12-24T22:13:03.301Z,37.30
2018-12-24T22:15:37.149Z,38.00
2018-12-24T22:18:10.402Z,41.60
2018-12-24T22:20:45.181Z,43.70
2018-12-24T22:23:18.823Z,44.80
2018-12-24T22:25:52.806Z,43.00
2018-12-24T22:28:26.899Z,43.50
2018-12-24T22:31:00.402Z,41.60
2018-12-24T22:33:52.298Z,39.60
2018-12-24T22:36:25.803Z,36.40
2018-12-24T22:38:58.671Z,36.90
2018-12-24T22:41:31.343Z,38.10
2018-12-24T22:44:04.879Z,35.60
2018-12-24T22:46:37.956Z,37.10
2018-12-24T22:49:11.490Z,37.00
2018-12-24T22:51:44.427Z,36.00
2018-12-24T22:54:17.771Z,36.00
2018-12-24T22:56:50.496Z,34.40
2018-12-24T22:59:23.677Z,31.90
2018-12-24T23:01:56.832Z,30.20
2018-12-24T23:04:29.684Z,28.60
2018-12-24T23:07:02.336Z,26.40
2018-12-24T23:09:35.800Z,24.90
2018-12-24T23:12:08.397Z,24.30
2018-12-24T23:14:41.289Z,23.90
2018-12-24T23:17:14.262Z,24.10
2018-12-24T23:19:47.499Z,25.30
2018-12-24T23:22:23.340Z,26.30
2018-12-24T23:24:54.955Z,27.90
2018-12-24T23:27:27.875Z,27.70
2018-12-24T23:30:01.072Z,27.70
2018-12-24T23:32:33.739Z,27.20
2018-12-24T23:35:07.776Z,27.60
2018-12-24T23:37:40.648Z,26.30
2018-12-24T23:40:13.523Z,25.10
2018-12-24T23:42:46.656Z,24.70
2018-12-24T23:45:19.875Z,24.90
2018-12-24T23:47:53.465Z,25.10
2018-12-24T23:50:26.504Z,24.90
2018-12-24T23:52:59.701Z,24.70
2018-12-24T23:55:32.731Z,24.30
2018-12-24T23:58:05.727Z,24.50
